Time;durP1;ratioP1;P1;durP2;ratioP2;P2;SDS_P1;SDS_P2;PMS_P1;PMS_P2;Temp;Humidity;BMP_temperature;BMP_pressure;BME280_temperature;BME280_humidity;BME280_pressure;Samples;Min_cycle;Max_cycle;Signal;HPM_P1;HPM_P2
2020/12/13 00:01:39;;;;;;;60.47;36.58;;;9.00;83.30;;;;;;5073392;28;20123;-48
2020/12/13 00:04:05;;;;;;;63.65;39.45;;;9.00;83.40;;;;;;5071804;28;20033;-48
2020/12/13 00:06:31;;;;;;;54.17;35.00;;;9.00;83.30;;;;;;5073544;28;20111;-46
2020/12/13 00:08:58;;;;;;;51.28;32.40;;;9.10;83.10;;;;;;5073336;28;20041;-49
2020/12/13 00:11:24;;;;;;;53.22;34.05;;;8.90;83.90;;;;;;5073450;28;20029;-46
2020/12/13 00:13:50;;;;;;;54.20;34.10;;;8.90;84.00;;;;;;5073421;28;20090;-48
2020/12/13 00:16:16;;;;;;;53.72;35.85;;;9.00;83.80;;;;;;5071731;28;20037;-48
2020/12/13 00:18:43;;;;;;;56.95;36.22;;;9.00;83.30;;;;;;5073257;28;20025;-46
2020/12/13 00:21:13;;;;;;;52.60;33.47;;;8.80;83.80;;;;;;5073187;28;20395;-47
2020/12/13 00:23:39;;;;;;;52.38;33.75;;;8.90;84.10;;;;;;5050848;28;20029;-46
2020/12/13 00:26:10;;;;;;;51.40;32.85;;;8.70;84.70;;;;;;5051288;28;20111;-50
2020/12/13 00:28:36;;;;;;;48.25;30.00;;;8.90;84.00;;;;;;5051339;28;20037;-45
2020/12/13 00:31:11;;;;;;;46.40;29.60;;;8.90;83.80;;;;;;5051164;28;20424;-47
2020/12/13 00:33:37;;;;;;;49.78;31.95;;;8.90;83.90;;;;;;5048515;28;20037;-46
2020/12/13 00:36:03;;;;;;;53.15;31.10;;;8.80;84.10;;;;;;5051119;28;20052;-50
2020/12/13 00:38:29;;;;;;;54.28;31.70;;;8.70;84.50;;;;;;5051018;28;20048;-48
2020/12/13 00:40:54;;;;;;;54.58;31.02;;;8.50;85.60;;;;;;5051047;28;20037;-49
2020/12/13 00:43:20;;;;;;;56.95;33.45;;;8.50;85.40;;;;;;5051158;28;20080;-48
2020/12/13 00:45:46;;;;;;;39.00;25.27;;;8.60;85.10;;;;;;5051000;28;20035;-51
2020/12/13 00:48:12;;;;;;;38.35;23.55;;;8.50;84.70;;;;;;5050950;28;20067;-50
2020/12/13 00:50:40;;;;;;;34.50;22.20;;;8.30;85.10;;;;;;5054962;28;20417;-48
2020/12/13 00:53:06;;;;;;;34.30;22.48;;;8.20;86.00;;;;;;5038200;28;20039;-46
2020/12/13 00:55:33;;;;;;;38.70;24.77;;;8.10;86.10;;;;;;5074627;28;20552;-49
2020/12/13 00:57:58;;;;;;;38.42;24.02;;;8.30;86.00;;;;;;5076933;28;20029;-48
2020/12/13 01:00:25;;;;;;;37.47;25.20;;;8.40;85.70;;;;;;5076740;28;20509;-48
2020/12/13 01:02:52;;;;;;;40.50;25.23;;;8.40;85.60;;;;;;5076914;28;20029;-46
2020/12/13 01:05:19;;;;;;;48.00;28.27;;;8.20;85.60;;;;;;5076359;28;20190;-47
2020/12/13 01:07:45;;;;;;;46.15;27.45;;;8.20;86.60;;;;;;5076785;28;20032;-46
2020/12/13 01:10:11;;;;;;;41.83;27.20;;;8.20;86.50;;;;;;5076587;28;20084;-46
2020/12/13 01:12:37;;;;;;;44.38;27.05;;;8.40;86.00;;;;;;5058102;28;20060;-49
2020/12/13 01:15:06;;;;;;;42.38;27.77;;;8.50;85.90;;;;;;5074723;28;20484;-48
2020/12/13 01:17:32;;;;;;;45.67;28.45;;;8.60;84.90;;;;;;5076616;28;20085;-48
2020/12/13 01:19:57;;;;;;;49.22;30.38;;;8.70;84.40;;;;;;5076321;28;20495;-48
2020/12/13 01:22:23;;;;;;;46.63;28.90;;;8.80;84.40;;;;;;5076375;28;20021;-48
2020/12/13 01:24:50;;;;;;;45.33;28.40;;;8.90;83.70;;;;;;5075007;28;20037;-48
2020/12/13 01:27:15;;;;;;;48.08;28.15;;;8.80;83.70;;;;;;5076530;28;20048;-49
2020/12/13 01:29:41;;;;;;;44.58;28.55;;;8.80;83.80;;;;;;5076231;28;20020;-48
2020/12/13 01:32:07;;;;;;;45.15;26.92;;;8.80;83.70;;;;;;5076358;28;20024;-47
2020/12/13 01:34:32;;;;;;;46.15;27.63;;;8.90;83.30;;;;;;5076185;28;20028;-49
2020/12/13 01:37:00;;;;;;;45.30;26.83;;;8.80;83.50;;;;;;5076407;28;20112;-48
2020/12/13 01:39:26;;;;;;;46.10;27.52;;;8.70;83.60;;;;;;5076250;28;20028;-46
2020/12/13 01:41:59;;;;;;;45.88;28.13;;;8.50;85.20;;;;;;5075908;28;20111;-47
2020/12/13 01:44:33;;;;;;;48.97;28.67;;;8.40;85.20;;;;;;5074214;28;20072;-50
2020/12/13 01:47:01;;;;;;;51.85;30.30;;;8.20;85.90;;;;;;5075933;28;20025;-47
2020/12/13 01:49:31;;;;;;;48.63;29.05;;;8.20;86.00;;;;;;5040593;28;20059;-47
2020/12/13 01:54:35;;;;;;;42.10;27.63;;;8.40;85.20;;;;;;5073983;28;20033;-46
2020/12/13 01:57:02;;;;;;;49.72;29.23;;;8.50;84.80;;;;;;5073641;28;20024;-48
2020/12/13 01:59:30;;;;;;;54.08;29.77;;;8.50;84.40;;;;;;5073970;28;20092;-48
2020/12/13 02:02:03;;;;;;;48.75;27.60;;;8.40;85.20;;;;;;5072588;28;20178;-46
2020/12/13 02:04:32;;;;;;;50.15;28.88;;;8.10;86.50;;;;;;5073730;28;20072;-47
2020/12/13 02:07:01;;;;;;;47.53;27.95;;;8.10;86.60;;;;;;5039974;28;20044;-51
2020/12/13 02:09:27;;;;;;;49.20;28.17;;;8.30;85.90;;;;;;5053137;28;20455;-47
2020/12/13 02:11:53;;;;;;;47.42;27.75;;;8.40;85.40;;;;;;5053348;28;20033;-46
2020/12/13 02:14:19;;;;;;;51.58;29.23;;;8.30;85.30;;;;;;5053587;28;20037;-49
2020/12/13 02:16:48;;;;;;;49.20;29.15;;;8.20;85.80;;;;;;5053353;28;20083;-49
2020/12/13 02:19:15;;;;;;;60.08;30.98;;;8.20;86.40;;;;;;5053224;28;20071;-50
2020/12/13 02:21:45;;;;;;;55.60;30.10;;;8.00;86.80;;;;;;5052928;28;20032;-49
2020/12/13 02:24:12;;;;;;;60.67;31.17;;;8.10;86.90;;;;;;5053443;28;20453;-50
2020/12/13 02:26:40;;;;;;;55.63;31.40;;;8.10;86.90;;;;;;5053167;28;20048;-47
2020/12/13 02:29:06;;;;;;;53.30;29.17;;;8.20;86.60;;;;;;5053205;28;20555;-50
2020/12/13 02:31:32;;;;;;;52.83;28.48;;;8.10;86.70;;;;;;5053057;28;20067;-48
2020/12/13 02:33:58;;;;;;;49.58;28.77;;;8.20;86.40;;;;;;5053083;28;20040;-47
2020/12/13 02:36:23;;;;;;;53.42;30.15;;;8.20;86.60;;;;;;5053067;28;20036;-48
2020/12/13 02:38:49;;;;;;;57.63;31.75;;;8.20;86.30;;;;;;5069571;28;20038;-49
2020/12/13 02:41:15;;;;;;;59.17;30.98;;;8.20;86.50;;;;;;5056250;28;20048;-47
2020/12/13 02:43:40;;;;;;;60.92;31.65;;;8.10;87.00;;;;;;5074849;28;20039;-45
2020/12/13 02:46:06;;;;;;;65.03;32.55;;;8.20;87.00;;;;;;5074776;28;20380;-49
2020/12/13 02:48:32;;;;;;;61.03;31.02;;;8.10;87.30;;;;;;5073714;28;20052;-50
2020/12/13 02:50:58;;;;;;;64.80;31.27;;;8.20;87.30;;;;;;5074913;28;20537;-50
2020/12/13 02:53:23;;;;;;;71.20;31.85;;;8.30;86.60;;;;;;5073307;28;20040;-48
2020/12/13 02:55:49;;;;;;;64.35;32.22;;;8.20;86.60;;;;;;5074697;28;20024;-48
2020/12/13 02:58:16;;;;;;;58.45;30.38;;;8.30;86.70;;;;;;5072956;28;20051;-48
2020/12/13 03:00:41;;;;;;;58.63;31.95;;;8.40;86.30;;;;;;5074398;28;20123;-47
2020/12/13 03:03:07;;;;;;;59.30;30.98;;;8.40;86.30;;;;;;5074669;28;20052;-50
2020/12/13 03:05:33;;;;;;;66.35;32.22;;;8.40;86.70;;;;;;5074612;28;20021;-48
2020/12/13 03:07:59;;;;;;;74.85;35.30;;;8.30;86.20;;;;;;5074056;28;20044;-47
2020/12/13 03:10:24;;;;;;;66.47;34.45;;;8.30;87.00;;;;;;5106788;28;20097;-48
2020/12/13 03:12:50;;;;;;;76.75;33.30;;;8.40;87.50;;;;;;5055363;28;20101;-49
2020/12/13 03:15:16;;;;;;;72.30;32.90;;;8.40;86.20;;;;;;5074866;28;20024;-49
2020/12/13 03:17:41;;;;;;;71.65;33.17;;;8.40;86.40;;;;;;5072549;28;20043;-50
2020/12/13 03:20:08;;;;;;;76.32;35.60;;;8.50;86.30;;;;;;5072265;28;20045;-51
2020/12/13 03:22:33;;;;;;;76.32;37.38;;;8.50;86.50;;;;;;5074138;28;20028;-49
2020/12/13 03:24:59;;;;;;;68.10;32.58;;;8.50;86.30;;;;;;5074330;28;20058;-49
2020/12/13 03:27:25;;;;;;;73.10;30.63;;;8.50;86.20;;;;;;5074105;28;20475;-48
2020/12/13 03:29:52;;;;;;;66.95;32.08;;;8.40;86.60;;;;;;5074216;28;20040;-48
2020/12/13 03:32:18;;;;;;;69.20;33.40;;;8.50;86.60;;;;;;5073927;28;20036;-50
2020/12/13 03:34:44;;;;;;;71.13;34.83;;;8.50;86.20;;;;;;5074169;28;20369;-47
2020/12/13 03:37:09;;;;;;;63.78;30.42;;;8.50;86.10;;;;;;5073808;28;20035;-46
2020/12/13 03:39:35;;;;;;;64.07;31.85;;;8.50;85.80;;;;;;5072091;28;20098;-50
2020/12/13 03:42:01;;;;;;;62.75;32.60;;;8.60;85.40;;;;;;5073622;28;20040;-46
2020/12/13 03:44:27;;;;;;;60.90;32.50;;;8.60;85.40;;;;;;5071972;28;20040;-47
2020/12/13 03:46:52;;;;;;;63.50;34.22;;;8.60;85.30;;;;;;5073801;28;20025;-45
2020/12/13 03:49:18;;;;;;;69.78;36.28;;;8.60;85.30;;;;;;5038660;28;20036;-49
2020/12/13 03:51:44;;;;;;;75.70;36.20;;;8.70;85.00;;;;;;5072027;28;20036;-45
2020/12/13 03:54:10;;;;;;;75.30;37.58;;;8.80;84.90;;;;;;5073634;28;20092;-47
2020/12/13 03:56:35;;;;;;;284.58;144.15;;;8.80;84.90;;;;;;5071875;28;20035;-47
2020/12/13 03:59:01;;;;;;;99.60;48.83;;;8.80;84.90;;;;;;5073761;28;20107;-47
2020/12/13 04:01:27;;;;;;;76.38;34.78;;;8.80;84.90;;;;;;5073404;28;20041;-45
2020/12/13 04:03:53;;;;;;;76.32;37.33;;;8.90;84.60;;;;;;5071410;28;20036;-50
2020/12/13 04:06:18;;;;;;;71.65;35.60;;;8.80;84.90;;;;;;5072577;28;20042;-47
2020/12/13 04:08:44;;;;;;;74.70;36.95;;;8.80;84.50;;;;;;5073349;28;20127;-47
2020/12/13 04:11:11;;;;;;;69.88;36.22;;;8.80;84.80;;;;;;5073383;28;20029;-46
2020/12/13 04:13:37;;;;;;;64.65;34.67;;;8.90;87.30;;;;;;5073526;28;20034;-46
2020/12/13 04:16:03;;;;;;;58.97;30.80;;;9.00;87.40;;;;;;5073579;28;20020;-49
2020/12/13 04:18:28;;;;;;;59.78;30.17;;;9.00;86.80;;;;;;5073323;28;20055;-46
2020/12/13 04:20:54;;;;;;;51.78;29.27;;;;;;;;;;5071763;28;20056;-47
2020/12/13 04:23:20;;;;;;;57.53;31.00;;;9.00;88.70;;;;;;5087938;28;20033;-48
2020/12/13 04:25:46;;;;;;;54.70;28.02;;;9.00;91.00;;;;;;5073490;28;20124;-46
2020/12/13 04:28:12;;;;;;;56.20;29.52;;;9.00;90.90;;;;;;5073636;28;20032;-48
2020/12/13 04:30:37;;;;;;;58.50;28.58;;;9.00;90.90;;;;;;5073330;28;20032;-49
2020/12/13 04:33:06;;;;;;;49.53;25.90;;;8.80;90.90;;;;;;5072972;28;20025;-50
2020/12/13 04:35:31;;;;;;;46.00;26.17;;;8.70;90.90;;;;;;5073127;28;20082;-47
2020/12/13 04:37:57;;;;;;;42.55;24.45;;;8.40;85.70;;;;;;5073411;28;20024;-48
2020/12/13 04:40:23;;;;;;;40.15;23.13;;;8.50;91.60;;;;;;5073142;28;20024;-49
2020/12/13 04:42:49;;;;;;;37.33;21.77;;;8.70;86.50;;;;;;5073139;28;20091;-47
2020/12/13 04:45:15;;;;;;;35.03;22.55;;;8.60;84.70;;;;;;5073105;28;20031;-47
2020/12/13 04:48:09;;;;;;;37.05;21.13;;;8.60;84.80;;;;;;5073053;28;20487;-46
2020/12/13 04:50:38;;;;;;;33.65;20.95;;;8.60;84.70;;;;;;5072889;28;20085;-47
2020/12/13 04:53:07;;;;;;;35.47;22.48;;;8.60;84.60;;;;;;5072978;28;20033;-46
2020/12/13 04:55:51;;;;;;;37.55;22.17;;;8.60;84.70;;;;;;5072969;28;20434;-49
2020/12/13 04:58:20;;;;;;;39.95;23.02;;;8.60;84.90;;;;;;5088055;28;20064;-47
2020/12/13 05:00:53;;;;;;;39.83;24.08;;;8.70;84.40;;;;;;5072860;28;20042;-46
2020/12/13 05:03:19;;;;;;;43.13;24.88;;;8.60;84.90;;;;;;5072857;28;20517;-46
2020/12/13 05:05:45;;;;;;;42.72;26.90;;;8.70;84.60;;;;;;5073160;28;20029;-47
2020/12/13 05:08:11;;;;;;;40.55;25.33;;;8.70;84.20;;;;;;5072762;28;20025;-46
2020/12/13 05:10:38;;;;;;;45.70;25.55;;;8.80;84.30;;;;;;5072917;28;20103;-45
2020/12/13 05:13:08;;;;;;;38.08;23.67;;;8.80;84.30;;;;;;5054604;28;20066;-46
2020/12/13 05:15:35;;;;;;;41.10;22.98;;;8.90;84.00;;;;;;5072751;28;20024;-47
2020/12/13 05:18:03;;;;;;;39.60;23.13;;;8.70;83.70;;;;;;5072877;28;20100;-49
2020/12/13 05:20:28;;;;;;;46.15;23.75;;;8.70;84.00;;;;;;5072738;28;20074;-49
2020/12/13 05:22:59;;;;;;;42.33;21.15;;;7.90;86.50;;;;;;5088021;28;20037;-46
2020/12/13 05:25:36;;;;;;;33.85;20.08;;;7.80;89.20;;;;;;5072760;28;20063;-48
2020/12/13 05:28:14;;;;;;;47.85;21.25;;;8.10;87.90;;;;;;5071129;28;20131;-48
2020/12/13 05:30:48;;;;;;;65.95;21.45;;;8.20;87.50;;;;;;5070922;28;20037;-47
2020/12/13 05:33:21;;;;;;;64.90;20.98;;;8.20;87.60;;;;;;5072575;28;20438;-47
2020/12/13 05:35:47;;;;;;;91.97;21.23;;;8.20;87.20;;;;;;5069909;28;20068;-45
2020/12/13 05:38:16;;;;;;;65.88;19.38;;;8.30;87.10;;;;;;5076343;28;20029;-46
2020/12/13 05:40:43;;;;;;;58.92;19.88;;;8.30;86.70;;;;;;5076194;28;20081;-48
2020/12/13 05:43:16;;;;;;;53.92;17.77;;;8.40;86.60;;;;;;5071254;28;20044;-48
2020/12/13 05:51:04;;;;;;;44.33;16.98;;;8.40;86.50;;;;;;5076206;28;20115;-49
2020/12/13 05:53:30;;;;;;;39.60;17.13;;;8.30;86.90;;;;;;5075834;28;20055;-46
2020/12/13 05:55:57;;;;;;;39.10;17.33;;;8.20;87.00;;;;;;5040635;28;20510;-48
2020/12/13 05:58:26;;;;;;;40.97;15.43;;;8.30;86.90;;;;;;5075745;28;20024;-49
2020/12/13 06:00:54;;;;;;;30.80;15.30;;;8.30;86.50;;;;;;5075762;28;20032;-50
2020/12/13 06:03:49;;;;;;;33.03;14.60;;;8.30;86.60;;;;;;5075601;28;20032;-47
2020/12/13 06:06:23;;;;;;;30.27;15.15;;;8.30;86.50;;;;;;5074916;28;20139;-47
2020/12/13 06:09:04;;;;;;;32.17;15.13;;;8.00;87.00;;;;;;5073692;28;20076;-47
2020/12/13 06:11:34;;;;;;;32.97;14.60;;;;;;;;;;5075541;28;20024;-50
2020/12/13 06:14:10;;;;;;;26.83;13.43;;;7.80;88.10;;;;;;5075809;28;20033;-47
2020/12/13 06:16:36;;;;;;;34.10;15.90;;;7.80;88.20;;;;;;5075631;28;20028;-48
2020/12/13 06:19:05;;;;;;;37.10;17.38;;;8.00;88.40;;;;;;5075539;28;20024;-49
2020/12/13 06:21:31;;;;;;;35.70;16.17;;;7.70;89.10;;;;;;5075335;28;20123;-49
2020/12/13 06:23:58;;;;;;;39.72;17.67;;;7.70;89.30;;;;;;5075523;28;20380;-50
2020/12/13 06:26:25;;;;;;;40.33;17.70;;;7.90;88.60;;;;;;5075494;28;20028;-49
2020/12/13 06:28:52;;;;;;;42.58;18.17;;;8.00;88.30;;;;;;5075647;28;20036;-49
2020/12/13 06:31:19;;;;;;;43.42;19.17;;;8.10;87.90;;;;;;5075271;28;20158;-45
2020/12/13 06:33:45;;;;;;;38.00;17.30;;;8.20;87.60;;;;;;5075186;28;20035;-48
2020/12/13 06:36:12;;;;;;;33.47;15.93;;;7.80;89.20;;;;;;5075118;28;20107;-48
2020/12/13 06:38:40;;;;;;;36.88;17.48;;;7.90;88.70;;;;;;5075028;28;20118;-49
2020/12/13 06:41:11;;;;;;;31.85;15.27;;;7.90;88.60;;;;;;5073484;28;20045;-47
2020/12/13 06:43:40;;;;;;;30.90;14.73;;;8.00;88.00;;;;;;5075060;28;20025;-48
2020/12/13 06:46:15;;;;;;;32.78;15.63;;;8.00;88.40;;;;;;5072783;28;20040;-50
2020/12/13 06:48:42;;;;;;;30.67;15.70;;;7.90;88.70;;;;;;5074749;28;20119;-49
2020/12/13 06:51:32;;;;;;;31.73;17.38;;;7.90;88.90;;;;;;5056582;28;20094;-50
2020/12/13 06:53:59;;;;;;;37.47;18.52;;;7.80;88.90;;;;;;5052864;28;20044;-49
2020/12/13 06:56:25;;;;;;;33.90;16.08;;;7.80;89.00;;;;;;5052642;28;20033;-49
2020/12/13 06:58:56;;;;;;;35.13;15.27;;;7.70;89.30;;;;;;5019179;28;20112;-48
2020/12/13 07:01:25;;;;;;;41.47;16.42;;;7.70;89.60;;;;;;5052323;28;20503;-47
2020/12/13 07:03:51;;;;;;;35.03;16.05;;;7.70;90.30;;;;;;5052475;28;20060;-45
2020/12/13 07:06:20;;;;;;;34.10;15.45;;;7.80;89.90;;;;;;5019549;28;20060;-49
2020/12/13 07:08:51;;;;;;;28.77;13.55;;;7.90;88.90;;;;;;5052304;28;20048;-50
2020/12/13 07:11:18;;;;;;;32.30;13.68;;;7.90;88.30;;;;;;5052232;28;20492;-49
2020/12/13 07:13:45;;;;;;;34.00;15.15;;;8.00;88.60;;;;;;5052379;28;20086;-46
2020/12/13 07:16:23;;;;;;;33.30;16.75;;;8.00;88.50;;;;;;5052261;28;20044;-47
2020/12/13 07:19:05;;;;;;;39.13;15.30;;;8.00;88.40;;;;;;5052168;28;20127;-47
2020/12/13 07:21:31;;;;;;;48.78;17.67;;;8.00;89.10;;;;;;5052334;28;20127;-48
2020/12/13 07:24:00;;;;;;;36.33;16.35;;;8.00;89.10;;;;;;5035609;28;20111;-47
2020/12/13 07:26:27;;;;;;;32.33;16.27;;;8.00;88.90;;;;;;5052141;28;20068;-49
2020/12/13 07:28:54;;;;;;;28.38;16.30;;;8.20;90.40;;;;;;5018925;28;20391;-48
2020/12/13 07:31:21;;;;;;;31.67;16.05;;;8.00;91.40;;;;;;5066591;28;20059;-49
2020/12/13 07:33:47;;;;;;;32.42;15.55;;;8.10;91.10;;;;;;5073927;28;20035;-48
2020/12/13 07:36:13;;;;;;;24.58;14.50;;;8.20;91.10;;;;;;5074206;28;20035;-49
2020/12/13 07:38:40;;;;;;;23.13;13.05;;;8.20;90.80;;;;;;5072151;28;20039;-48
2020/12/13 07:41:16;;;;;;;26.08;13.60;;;8.10;90.70;;;;;;5073757;28;20028;-47
2020/12/13 07:43:57;;;;;;;27.60;15.32;;;8.10;90.90;;;;;;5073762;28;20039;-48
2020/12/13 07:46:23;;;;;;;28.05;14.57;;;8.10;91.50;;;;;;5073902;28;20024;-47
2020/12/13 07:48:59;;;;;;;34.08;15.57;;;8.10;91.20;;;;;;5073726;28;20103;-45
2020/12/13 07:51:25;;;;;;;26.67;14.18;;;8.20;91.40;;;;;;5088817;28;20059;-47
2020/12/13 07:53:51;;;;;;;25.20;14.02;;;8.00;93.00;;;;;;5072386;28;20480;-47
2020/12/13 07:56:27;;;;;;;27.65;15.00;;;8.00;93.00;;;;;;5073866;28;20028;-47
2020/12/13 07:59:09;;;;;;;27.02;14.13;;;8.00;94.00;;;;;;5071645;28;20032;-46
2020/12/13 08:01:34;;;;;;;23.65;13.50;;;8.00;93.00;;;;;;5073626;28;20032;-47
2020/12/13 08:04:00;;;;;;;21.98;14.23;;;7.90;91.50;;;;;;5071609;28;20119;-47
2020/12/13 08:06:26;;;;;;;19.80;13.70;;;7.90;91.10;;;;;;5073560;28;20081;-48
2020/12/13 08:08:52;;;;;;;23.27;14.18;;;7.90;90.10;;;;;;5073217;28;20488;-46
2020/12/13 08:11:18;;;;;;;22.10;13.65;;;7.90;90.10;;;;;;5071630;28;20094;-48
2020/12/13 08:13:55;;;;;;;25.77;15.15;;;8.00;90.00;;;;;;5073247;28;20025;-48
2020/12/13 08:16:25;;;;;;;22.45;14.25;;;7.90;90.00;;;;;;5071688;28;20033;-50
2020/12/13 08:18:52;;;;;;;20.27;13.63;;;7.90;90.00;;;;;;5073533;28;20052;-48
2020/12/13 08:21:32;;;;;;;25.42;14.70;;;7.90;90.20;;;;;;5073361;28;20037;-47
2020/12/13 08:24:02;;;;;;;25.05;14.50;;;7.80;90.40;;;;;;5073297;28;20020;-49
2020/12/13 08:26:28;;;;;;;26.33;15.20;;;7.90;90.30;;;;;;5073320;28;20392;-46
2020/12/13 08:28:55;;;;;;;37.05;19.92;;;7.90;90.40;;;;;;5073353;28;20384;-48
2020/12/13 08:31:28;;;;;;;51.58;23.48;;;7.80;90.60;;;;;;5088283;28;20060;-46
2020/12/13 08:34:04;;;;;;;64.07;26.13;;;7.90;90.40;;;;;;5073296;28;20034;-48
2020/12/13 08:36:31;;;;;;;57.25;24.05;;;7.90;90.80;;;;;;5071723;28;20387;-46
2020/12/13 08:39:10;;;;;;;69.53;31.60;;;7.80;90.80;;;;;;5073460;28;20027;-47
2020/12/13 08:41:43;;;;;;;86.82;28.77;;;7.50;91.50;;;;;;5071320;28;20602;-50
2020/12/13 08:44:31;;;;;;;88.55;32.60;;;7.50;91.30;;;;;;5070186;28;20043;-48
2020/12/13 08:47:10;;;;;;;64.53;26.27;;;7.40;91.80;;;;;;5071339;28;20059;-47
2020/12/13 08:49:38;;;;;;;76.97;30.05;;;7.50;91.20;;;;;;5073048;28;20491;-48
2020/12/13 08:52:25;;;;;;;66.20;28.23;;;7.50;91.30;;;;;;5072338;28;20028;-49
2020/12/13 08:54:53;;;;;;;72.78;40.50;;;7.60;91.10;;;;;;5052609;28;20115;-48
2020/12/13 08:57:32;;;;;;;65.40;32.88;;;7.60;91.00;;;;;;5035847;28;20040;-47
2020/12/13 09:00:04;;;;;;;57.40;27.70;;;7.50;91.20;;;;;;5069403;28;20416;-49
2020/12/13 09:02:29;;;;;;;58.67;30.15;;;7.70;92.50;;;;;;5069484;28;20035;-46
2020/12/13 09:04:57;;;;;;;62.25;29.13;;;7.50;90.70;;;;;;5069268;28;20044;-48
2020/12/13 09:07:23;;;;;;;61.75;28.65;;;7.30;91.40;;;;;;5035838;28;20106;-51
2020/12/13 09:09:49;;;;;;;107.95;60.10;;;7.30;91.80;;;;;;5070284;28;20044;-46
2020/12/13 09:12:19;;;;;;;289.00;138.63;;;7.30;91.60;;;;;;5073276;28;20127;-50
2020/12/13 09:14:46;;;;;;;312.70;151.93;;;7.00;92.00;;;;;;5049953;28;20040;-49
2020/12/13 09:17:21;;;;;;;388.40;202.55;;;7.00;92.20;;;;;;5076226;28;20036;-51
2020/12/13 09:19:51;;;;;;;458.38;264.65;;;7.00;92.20;;;;;;5058732;28;20044;-47
2020/12/13 09:22:21;;;;;;;451.42;247.63;;;6.90;92.40;;;;;;5092889;28;20035;-48
2020/12/13 09:24:48;;;;;;;106.35;57.00;;;6.90;92.40;;;;;;5092648;28;20024;-48
2020/12/13 09:27:19;;;;;;;97.20;55.40;;;7.00;92.30;;;;;;5095578;28;20047;-49
2020/12/13 09:29:47;;;;;;;74.70;51.58;;;7.10;92.20;;;;;;5095051;28;20059;-50
2020/12/13 09:32:14;;;;;;;53.70;26.90;;;7.20;91.90;;;;;;5090264;28;20535;-50
2020/12/13 09:34:41;;;;;;;62.40;33.58;;;7.00;92.30;;;;;;5093595;28;20020;-49
2020/12/13 09:37:11;;;;;;;56.13;31.15;;;7.10;92.20;;;;;;5109097;28;20361;-45
2020/12/13 09:39:38;;;;;;;54.25;28.90;;;7.20;92.00;;;;;;5055065;28;20440;-47
2020/12/13 09:42:04;;;;;;;62.08;30.83;;;7.00;92.30;;;;;;5089146;28;20028;-48
2020/12/13 09:44:30;;;;;;;56.42;31.00;;;7.10;92.40;;;;;;5109338;28;20046;-47
2020/12/13 09:46:58;;;;;;;108.10;63.00;;;7.00;92.60;;;;;;5095200;28;20032;-48
2020/12/13 09:49:25;;;;;;;88.97;52.28;;;7.20;92.70;;;;;;5110449;28;20063;-48
2020/12/13 09:52:02;;;;;;;76.60;39.83;;;7.40;92.20;;;;;;5112542;28;20032;-47
2020/12/13 09:54:29;;;;;;;61.45;28.75;;;7.50;91.70;;;;;;5113133;28;20051;-47
2020/12/13 09:56:55;;;;;;;59.28;29.58;;;7.30;92.10;;;;;;5062153;28;20035;-47
2020/12/13 09:59:21;;;;;;;59.47;29.27;;;7.10;92.20;;;;;;5112881;28;20074;-47
2020/12/13 10:01:47;;;;;;;58.33;29.80;;;7.00;92.80;;;;;;5038767;28;20045;-48
2020/12/13 10:04:14;;;;;;;45.05;23.63;;;7.00;92.50;;;;;;5055320;28;20037;-48
2020/12/13 10:09:11;;;;;;;45.30;25.05;;;7.00;92.70;;;;;;5071799;28;20040;-49
2020/12/13 10:11:38;;;;;;;43.13;25.45;;;7.00;91.90;;;;;;5039216;28;20051;-47
2020/12/13 10:14:06;;;;;;;44.40;26.30;;;6.90;92.10;;;;;;5072097;28;20028;-47
2020/12/13 10:16:33;;;;;;;47.55;27.50;;;7.10;92.50;;;;;;5055224;28;20407;-48
2020/12/13 10:18:58;;;;;;;45.65;27.38;;;7.30;91.70;;;;;;5071940;28;20036;-49
2020/12/13 10:21:26;;;;;;;48.58;29.02;;;7.60;91.60;;;;;;5071048;28;20048;-47
2020/12/13 10:23:53;;;;;;;47.50;29.25;;;7.50;91.50;;;;;;5071637;28;20056;-47
2020/12/13 10:26:22;;;;;;;46.70;28.95;;;;;;;;;;5071743;28;20021;-48
2020/12/13 10:28:49;;;;;;;39.83;22.10;;;;;;;;;;5069155;28;20028;-48
2020/12/13 10:31:15;;;;;;;47.97;26.30;;;7.30;90.40;;;;;;5054063;28;20044;-49
2020/12/13 10:33:41;;;;;;;54.17;29.02;;;7.30;91.00;;;;;;5088067;28;20024;-48
2020/12/13 10:36:08;;;;;;;53.65;28.45;;;7.30;91.50;;;;;;5093585;28;20024;-48
2020/12/13 10:38:34;;;;;;;61.67;28.52;;;7.20;91.20;;;;;;5108133;28;20059;-46
2020/12/13 10:41:00;;;;;;;58.97;30.10;;;7.20;91.10;;;;;;5093429;28;20078;-48
2020/12/13 10:43:26;;;;;;;67.15;39.25;;;7.20;91.20;;;;;;5093569;28;20379;-46
2020/12/13 10:45:51;;;;;;;60.20;36.58;;;7.30;91.60;;;;;;5093788;28;20103;-46
2020/12/13 10:48:17;;;;;;;49.28;27.65;;;7.20;91.40;;;;;;5094034;28;20024;-49
2020/12/13 10:50:43;;;;;;;52.35;30.17;;;7.20;91.70;;;;;;5093737;28;20501;-48
2020/12/13 10:53:08;;;;;;;78.10;40.00;;;7.30;91.70;;;;;;5093450;28;20023;-48
2020/12/13 10:55:34;;;;;;;54.28;29.73;;;7.70;92.20;;;;;;5093915;28;20028;-47
2020/12/13 10:58:00;;;;;;;55.33;32.33;;;7.80;91.90;;;;;;5090927;28;20050;-46
2020/12/13 11:00:25;;;;;;;71.13;41.35;;;7.60;92.00;;;;;;5091280;28;20040;-48
2020/12/13 11:02:51;;;;;;;89.88;48.58;;;7.80;91.90;;;;;;5050751;28;20044;-46
2020/12/13 11:05:17;;;;;;;83.63;43.38;;;7.70;90.90;;;;;;5050780;28;20123;-49
2020/12/13 11:07:43;;;;;;;54.67;29.70;;;7.80;90.60;;;;;;5050241;28;20059;-48
2020/12/13 11:10:09;;;;;;;93.05;50.88;;;8.00;90.10;;;;;;5050067;28;20041;-46
2020/12/13 11:12:35;;;;;;;68.90;44.92;;;8.10;89.10;;;;;;5034521;28;20126;-47
2020/12/13 11:15:00;;;;;;;51.65;31.02;;;7.80;90.00;;;;;;5050931;28;20047;-48
2020/12/13 11:17:26;;;;;;;55.30;36.40;;;8.00;90.10;;;;;;5001040;28;20037;-47
2020/12/13 11:19:52;;;;;;;127.05;75.22;;;8.10;89.10;;;;;;5050829;28;20028;-48
2020/12/13 11:22:18;;;;;;;55.80;33.53;;;8.00;89.80;;;;;;5033869;28;20183;-51
2020/12/13 11:24:45;;;;;;;37.40;24.58;;;7.80;89.20;;;;;;5050661;28;20033;-49
2020/12/13 11:27:10;;;;;;;106.30;62.13;;;8.00;89.10;;;;;;5050662;28;20041;-48
2020/12/13 11:29:36;;;;;;;60.75;38.65;;;7.80;88.80;;;;;;5065552;28;20043;-47
2020/12/13 11:32:02;;;;;;;64.05;40.92;;;7.90;89.00;;;;;;5070597;28;20110;-49
2020/12/13 11:34:28;;;;;;;37.25;25.67;;;8.00;89.20;;;;;;5070447;28;20060;-46
2020/12/13 11:36:53;;;;;;;82.07;49.72;;;8.10;88.70;;;;;;5070556;28;20025;-47
2020/12/13 11:39:19;;;;;;;74.22;46.58;;;8.10;88.20;;;;;;5070461;28;20115;-48
2020/12/13 11:41:45;;;;;;;51.58;33.03;;;7.70;89.50;;;;;;5072510;28;20035;-45
2020/12/13 11:44:11;;;;;;;63.22;37.13;;;7.70;89.80;;;;;;5072581;28;20023;-49
2020/12/13 11:46:36;;;;;;;72.35;46.67;;;7.70;89.50;;;;;;5072707;28;20051;-48
2020/12/13 11:49:02;;;;;;;44.75;27.50;;;7.70;90.10;;;;;;5072695;28;20029;-49
2020/12/13 11:51:28;;;;;;;57.80;37.80;;;7.60;90.10;;;;;;5071181;28;20036;-48
2020/12/13 11:53:54;;;;;;;81.47;54.17;;;;;;;;;;5070465;28;20036;-50
2020/12/13 11:56:22;;;;;;;65.82;44.40;;;7.70;99.90;;;;;;5072387;28;20020;-46
2020/12/13 11:58:48;;;;;;;58.00;38.75;;;7.30;90.60;;;;;;5072623;28;20024;-47
2020/12/13 12:01:14;;;;;;;37.22;23.02;;;7.50;90.00;;;;;;5053228;28;20044;-48
2020/12/13 12:03:40;;;;;;;61.97;40.00;;;7.40;90.10;;;;;;5069855;28;20115;-46
2020/12/13 12:06:09;;;;;;;40.53;25.58;;;7.30;90.20;;;;;;5070099;28;20468;-47
2020/12/13 12:08:35;;;;;;;58.17;37.85;;;7.30;90.70;;;;;;5069488;28;20044;-46
2020/12/13 12:11:01;;;;;;;39.50;24.67;;;7.50;90.50;;;;;;5010184;28;20038;-49
2020/12/13 12:13:27;;;;;;;187.88;83.05;;;7.40;90.60;;;;;;5010239;28;20038;-47
2020/12/13 12:15:53;;;;;;;81.38;42.38;;;7.50;90.20;;;;;;4961129;28;20690;-48
2020/12/13 12:18:19;;;;;;;35.55;21.20;;;7.60;90.00;;;;;;5010026;28;20042;-49
2020/12/13 12:20:44;;;;;;;70.13;42.42;;;7.40;89.90;;;;;;5009999;28;20092;-48
2020/12/13 12:23:10;;;;;;;95.82;57.47;;;7.40;90.30;;;;;;5010035;28;20069;-47
2020/12/13 12:25:36;;;;;;;42.88;28.35;;;7.60;90.10;;;;;;5010221;28;20038;-49
2020/12/13 12:28:02;;;;;;;83.63;47.95;;;7.50;90.00;;;;;;5010150;28;20057;-49
2020/12/13 12:30:28;;;;;;;68.35;42.80;;;7.40;90.10;;;;;;5010085;28;20458;-47
2020/12/13 12:32:55;;;;;;;74.78;47.63;;;7.40;90.60;;;;;;5010103;28;20104;-49
2020/12/13 12:35:20;;;;;;;42.15;25.85;;;7.40;90.80;;;;;;5025226;28;20053;-47
2020/12/13 12:37:47;;;;;;;75.72;49.38;;;7.60;90.40;;;;;;5029851;28;20080;-47
2020/12/13 12:40:12;;;;;;;43.92;28.55;;;7.60;90.10;;;;;;5029797;28;20037;-46
2020/12/13 12:42:38;;;;;;;44.45;29.08;;;7.80;89.80;;;;;;5061685;28;20040;-46
2020/12/13 12:45:04;;;;;;;46.10;27.40;;;7.80;89.90;;;;;;5084548;28;20028;-48
2020/12/13 12:47:30;;;;;;;53.42;30.80;;;7.90;88.90;;;;;;5083988;28;20153;-52
2020/12/13 12:49:56;;;;;;;176.00;94.03;;;8.00;88.80;;;;;;5085364;28;20035;-48
2020/12/13 12:52:21;;;;;;;358.23;198.27;;;8.00;88.40;;;;;;5085130;28;20013;-47